sensor_id;sensor_type;location;lat;lon;timestamp;P1;durP1;ratioP1;P2;durP2;ratioP2
13943;SDS011;7044;53.286;8.534;2023-06-10T00:00:23;4.68;;;2.80;;
13943;SDS011;7044;53.286;8.534;2023-06-10T00:02:51;5.88;;;3.15;;
13943;SDS011;7044;53.286;8.534;2023-06-10T00:05:19;6.72;;;2.85;;
13943;SDS011;7044;53.286;8.534;2023-06-10T00:07:46;10.32;;;3.75;;
13943;SDS011;7044;53.286;8.534;2023-06-10T00:10:14;3.95;;;2.92;;
13943;SDS011;7044;53.286;8.534;2023-06-10T00:12:41;9.07;;;3.15;;
13943;SDS011;7044;53.286;8.534;2023-06-10T00:15:09;6.90;;;3.15;;
13943;SDS011;7044;53.286;8.534;2023-06-10T00:17:36;5.90;;;3.03;;
13943;SDS011;7044;53.286;8.534;2023-06-10T00:20:04;6.13;;;3.10;;
13943;SDS011;7044;53.286;8.534;2023-06-10T00:22:35;9.88;;;3.40;;
13943;SDS011;7044;53.286;8.534;2023-06-10T00:25:02;5.15;;;2.67;;
13943;SDS011;7044;53.286;8.534;2023-06-10T00:27:30;4.63;;;2.70;;
13943;SDS011;7044;53.286;8.534;2023-06-10T00:30:00;5.88;;;3.10;;
13943;SDS011;7044;53.286;8.534;2023-06-10T00:32:27;6.55;;;3.17;;
13943;SDS011;7044;53.286;8.534;2023-06-10T00:34:54;5.72;;;3.13;;
13943;SDS011;7044;53.286;8.534;2023-06-10T00:37:20;9.15;;;3.35;;
13943;SDS011;7044;53.286;8.534;2023-06-10T00:39:49;8.98;;;2.97;;
13943;SDS011;7044;53.286;8.534;2023-06-10T00:42:16;7.32;;;3.65;;
13943;SDS011;7044;53.286;8.534;2023-06-10T00:44:44;5.07;;;2.70;;
13943;SDS011;7044;53.286;8.534;2023-06-10T00:47:11;5.82;;;2.90;;
13943;SDS011;7044;53.286;8.534;2023-06-10T00:49:37;5.93;;;3.40;;
13943;SDS011;7044;53.286;8.534;2023-06-10T00:52:05;6.20;;;3.17;;
13943;SDS011;7044;53.286;8.534;2023-06-10T00:54:33;3.90;;;3.00;;
13943;SDS011;7044;53.286;8.534;2023-06-10T00:57:01;6.20;;;3.92;;
13943;SDS011;7044;53.286;8.534;2023-06-10T00:59:28;7.28;;;3.67;;
13943;SDS011;7044;53.286;8.534;2023-06-10T01:01:57;6.45;;;3.20;;
13943;SDS011;7044;53.286;8.534;2023-06-10T01:04:24;9.80;;;3.50;;
13943;SDS011;7044;53.286;8.534;2023-06-10T01:06:54;4.95;;;2.95;;
13943;SDS011;7044;53.286;8.534;2023-06-10T01:09:29;8.88;;;2.85;;
13943;SDS011;7044;53.286;8.534;2023-06-10T01:12:05;7.03;;;3.17;;
13943;SDS011;7044;53.286;8.534;2023-06-10T01:14:36;8.65;;;4.05;;
13943;SDS011;7044;53.286;8.534;2023-06-10T01:17:03;9.05;;;3.70;;
13943;SDS011;7044;53.286;8.534;2023-06-10T01:19:32;8.85;;;2.85;;
13943;SDS011;7044;53.286;8.534;2023-06-10T01:22:00;6.65;;;3.30;;
13943;SDS011;7044;53.286;8.534;2023-06-10T01:24:27;6.97;;;3.75;;
13943;SDS011;7044;53.286;8.534;2023-06-10T01:26:58;6.03;;;2.92;;
13943;SDS011;7044;53.286;8.534;2023-06-10T01:29:28;5.38;;;3.30;;
13943;SDS011;7044;53.286;8.534;2023-06-10T01:32:00;11.48;;;3.60;;
13943;SDS011;7044;53.286;8.534;2023-06-10T01:34:31;8.35;;;2.70;;
13943;SDS011;7044;53.286;8.534;2023-06-10T01:37:00;8.65;;;3.60;;
13943;SDS011;7044;53.286;8.534;2023-06-10T01:39:30;7.32;;;3.30;;
13943;SDS011;7044;53.286;8.534;2023-06-10T01:41:58;8.07;;;3.58;;
13943;SDS011;7044;53.286;8.534;2023-06-10T01:44:25;10.65;;;3.53;;
13943;SDS011;7044;53.286;8.534;2023-06-10T01:46:51;10.75;;;3.88;;
13943;SDS011;7044;53.286;8.534;2023-06-10T01:49:18;6.45;;;3.65;;
13943;SDS011;7044;53.286;8.534;2023-06-10T01:51:47;8.88;;;3.97;;
13943;SDS011;7044;53.286;8.534;2023-06-10T01:54:15;10.40;;;3.75;;
13943;SDS011;7044;53.286;8.534;2023-06-10T01:56:42;7.63;;;3.70;;
13943;SDS011;7044;53.286;8.534;2023-06-10T01:59:09;8.13;;;3.47;;
13943;SDS011;7044;53.286;8.534;2023-06-10T02:01:35;5.72;;;3.95;;
13943;SDS011;7044;53.286;8.534;2023-06-10T02:04:03;6.57;;;3.92;;
13943;SDS011;7044;53.286;8.534;2023-06-10T02:06:29;7.75;;;3.35;;
13943;SDS011;7044;53.286;8.534;2023-06-10T02:08:56;6.75;;;3.60;;
13943;SDS011;7044;53.286;8.534;2023-06-10T02:11:24;7.97;;;3.60;;
13943;SDS011;7044;53.286;8.534;2023-06-10T02:13:52;9.70;;;3.78;;
13943;SDS011;7044;53.286;8.534;2023-06-10T02:16:18;6.22;;;3.65;;
13943;SDS011;7044;53.286;8.534;2023-06-10T02:18:46;8.57;;;3.85;;
13943;SDS011;7044;53.286;8.534;2023-06-10T02:21:13;5.95;;;4.18;;
13943;SDS011;7044;53.286;8.534;2023-06-10T02:23:40;8.77;;;3.60;;
13943;SDS011;7044;53.286;8.534;2023-06-10T02:26:07;8.63;;;4.30;;
13943;SDS011;7044;53.286;8.534;2023-06-10T02:28:35;7.28;;;4.25;;
13943;SDS011;7044;53.286;8.534;2023-06-10T02:31:02;7.30;;;3.63;;
13943;SDS011;7044;53.286;8.534;2023-06-10T02:33:28;13.65;;;4.05;;
13943;SDS011;7044;53.286;8.534;2023-06-10T02:35:55;8.40;;;3.55;;
13943;SDS011;7044;53.286;8.534;2023-06-10T02:38:22;10.75;;;3.80;;
13943;SDS011;7044;53.286;8.534;2023-06-10T02:40:49;8.25;;;3.83;;
13943;SDS011;7044;53.286;8.534;2023-06-10T02:43:16;9.18;;;4.50;;
13943;SDS011;7044;53.286;8.534;2023-06-10T02:45:44;10.05;;;3.88;;
13943;SDS011;7044;53.286;8.534;2023-06-10T02:48:11;13.50;;;3.90;;
13943;SDS011;7044;53.286;8.534;2023-06-10T02:50:37;10.05;;;4.22;;
13943;SDS011;7044;53.286;8.534;2023-06-10T02:53:05;6.80;;;3.65;;
13943;SDS011;7044;53.286;8.534;2023-06-10T02:55:32;7.32;;;3.97;;
13943;SDS011;7044;53.286;8.534;2023-06-10T02:58:00;6.07;;;3.65;;
13943;SDS011;7044;53.286;8.534;2023-06-10T03:00:27;7.68;;;3.88;;
13943;SDS011;7044;53.286;8.534;2023-06-10T03:02:55;7.05;;;4.07;;
13943;SDS011;7044;53.286;8.534;2023-06-10T03:05:23;7.38;;;4.68;;
13943;SDS011;7044;53.286;8.534;2023-06-10T03:07:50;9.38;;;4.60;;
13943;SDS011;7044;53.286;8.534;2023-06-10T03:10:16;12.20;;;4.60;;
13943;SDS011;7044;53.286;8.534;2023-06-10T03:12:43;10.10;;;4.18;;
13943;SDS011;7044;53.286;8.534;2023-06-10T03:15:10;8.30;;;3.85;;
13943;SDS011;7044;53.286;8.534;2023-06-10T03:17:37;8.00;;;4.22;;
13943;SDS011;7044;53.286;8.534;2023-06-10T03:20:06;11.02;;;4.13;;
13943;SDS011;7044;53.286;8.534;2023-06-10T03:22:35;7.65;;;4.22;;
13943;SDS011;7044;53.286;8.534;2023-06-10T03:25:03;9.63;;;4.05;;
13943;SDS011;7044;53.286;8.534;2023-06-10T03:27:30;6.90;;;3.88;;
13943;SDS011;7044;53.286;8.534;2023-06-10T03:29:57;8.13;;;3.72;;
13943;SDS011;7044;53.286;8.534;2023-06-10T03:32:24;10.80;;;4.43;;
13943;SDS011;7044;53.286;8.534;2023-06-10T03:34:51;10.15;;;4.32;;
13943;SDS011;7044;53.286;8.534;2023-06-10T03:37:23;7.72;;;3.97;;
13943;SDS011;7044;53.286;8.534;2023-06-10T03:39:50;11.00;;;4.45;;
13943;SDS011;7044;53.286;8.534;2023-06-10T03:42:16;6.30;;;3.88;;
13943;SDS011;7044;53.286;8.534;2023-06-10T03:44:43;10.23;;;4.55;;
13943;SDS011;7044;53.286;8.534;2023-06-10T03:47:10;9.50;;;4.60;;
13943;SDS011;7044;53.286;8.534;2023-06-10T03:49:38;7.50;;;4.00;;
13943;SDS011;7044;53.286;8.534;2023-06-10T03:52:05;6.43;;;3.97;;
13943;SDS011;7044;53.286;8.534;2023-06-10T03:54:34;10.95;;;4.00;;
13943;SDS011;7044;53.286;8.534;2023-06-10T03:57:00;11.70;;;4.50;;
13943;SDS011;7044;53.286;8.534;2023-06-10T03:59:28;9.23;;;3.92;;
13943;SDS011;7044;53.286;8.534;2023-06-10T04:01:55;6.97;;;3.85;;
13943;SDS011;7044;53.286;8.534;2023-06-10T04:04:22;7.22;;;4.22;;
13943;SDS011;7044;53.286;8.534;2023-06-10T04:06:49;9.43;;;4.38;;
13943;SDS011;7044;53.286;8.534;2023-06-10T04:09:16;6.70;;;3.90;;
13943;SDS011;7044;53.286;8.534;2023-06-10T04:11:44;8.35;;;3.67;;
13943;SDS011;7044;53.286;8.534;2023-06-10T04:14:11;8.30;;;3.75;;
13943;SDS011;7044;53.286;8.534;2023-06-10T04:16:39;5.68;;;3.28;;
13943;SDS011;7044;53.286;8.534;2023-06-10T04:19:05;7.85;;;3.70;;
13943;SDS011;7044;53.286;8.534;2023-06-10T04:21:32;7.65;;;4.22;;
13943;SDS011;7044;53.286;8.534;2023-06-10T04:23:59;6.72;;;3.65;;
13943;SDS011;7044;53.286;8.534;2023-06-10T04:26:26;6.70;;;3.55;;
13943;SDS011;7044;53.286;8.534;2023-06-10T04:28:55;8.40;;;3.38;;
13943;SDS011;7044;53.286;8.534;2023-06-10T04:31:22;6.07;;;3.70;;
13943;SDS011;7044;53.286;8.534;2023-06-10T04:33:48;6.15;;;4.07;;
13943;SDS011;7044;53.286;8.534;2023-06-10T04:36:15;9.25;;;3.58;;
13943;SDS011;7044;53.286;8.534;2023-06-10T04:38:42;9.07;;;4.75;;
13943;SDS011;7044;53.286;8.534;2023-06-10T04:41:09;7.05;;;3.70;;
13943;SDS011;7044;53.286;8.534;2023-06-10T04:43:35;7.85;;;3.50;;
13943;SDS011;7044;53.286;8.534;2023-06-10T04:46:04;7.88;;;3.55;;
13943;SDS011;7044;53.286;8.534;2023-06-10T04:48:31;5.93;;;3.17;;
13943;SDS011;7044;53.286;8.534;2023-06-10T04:51:00;7.68;;;3.10;;
13943;SDS011;7044;53.286;8.534;2023-06-10T04:53:27;9.75;;;3.17;;
13943;SDS011;7044;53.286;8.534;2023-06-10T04:55:54;7.03;;;3.30;;
13943;SDS011;7044;53.286;8.534;2023-06-10T04:58:22;5.28;;;3.20;;
13943;SDS011;7044;53.286;8.534;2023-06-10T05:00:49;6.15;;;2.95;;
13943;SDS011;7044;53.286;8.534;2023-06-10T05:03:17;7.13;;;3.15;;
13943;SDS011;7044;53.286;8.534;2023-06-10T05:05:44;5.53;;;3.00;;
13943;SDS011;7044;53.286;8.534;2023-06-10T05:08:10;9.32;;;3.47;;
13943;SDS011;7044;53.286;8.534;2023-06-10T05:10:37;7.97;;;3.00;;
13943;SDS011;7044;53.286;8.534;2023-06-10T05:13:04;8.65;;;3.13;;
13943;SDS011;7044;53.286;8.534;2023-06-10T05:15:31;6.32;;;3.15;;
13943;SDS011;7044;53.286;8.534;2023-06-10T05:17:58;8.13;;;3.10;;
13943;SDS011;7044;53.286;8.534;2023-06-10T05:20:26;11.05;;;3.30;;
13943;SDS011;7044;53.286;8.534;2023-06-10T05:22:53;5.82;;;2.83;;
13943;SDS011;7044;53.286;8.534;2023-06-10T05:25:20;6.20;;;2.80;;
13943;SDS011;7044;53.286;8.534;2023-06-10T05:27:47;6.47;;;2.58;;
13943;SDS011;7044;53.286;8.534;2023-06-10T05:30:14;10.40;;;2.55;;
13943;SDS011;7044;53.286;8.534;2023-06-10T05:32:43;7.75;;;2.88;;
13943;SDS011;7044;53.286;8.534;2023-06-10T05:35:10;5.60;;;2.55;;
13943;SDS011;7044;53.286;8.534;2023-06-10T05:37:38;10.57;;;2.63;;
13943;SDS011;7044;53.286;8.534;2023-06-10T05:40:05;9.27;;;2.40;;
13943;SDS011;7044;53.286;8.534;2023-06-10T05:42:33;5.95;;;2.53;;
13943;SDS011;7044;53.286;8.534;2023-06-10T05:45:00;7.60;;;2.70;;
13943;SDS011;7044;53.286;8.534;2023-06-10T05:47:27;6.25;;;2.50;;
13943;SDS011;7044;53.286;8.534;2023-06-10T05:49:55;13.48;;;2.75;;
13943;SDS011;7044;53.286;8.534;2023-06-10T05:52:22;7.15;;;2.33;;
13943;SDS011;7044;53.286;8.534;2023-06-10T05:54:50;5.78;;;2.63;;
13943;SDS011;7044;53.286;8.534;2023-06-10T05:57:17;5.97;;;2.55;;
13943;SDS011;7044;53.286;8.534;2023-06-10T05:59:44;6.70;;;2.95;;
13943;SDS011;7044;53.286;8.534;2023-06-10T06:02:11;6.25;;;2.60;;
13943;SDS011;7044;53.286;8.534;2023-06-10T06:04:37;8.95;;;2.85;;
13943;SDS011;7044;53.286;8.534;2023-06-10T06:07:04;6.32;;;2.75;;
13943;SDS011;7044;53.286;8.534;2023-06-10T06:09:31;5.15;;;2.38;;
13943;SDS011;7044;53.286;8.534;2023-06-10T06:11:59;10.48;;;2.65;;
13943;SDS011;7044;53.286;8.534;2023-06-10T06:14:26;9.40;;;2.95;;
13943;SDS011;7044;53.286;8.534;2023-06-10T06:16:56;5.43;;;2.70;;
13943;SDS011;7044;53.286;8.534;2023-06-10T06:19:23;9.40;;;2.95;;
13943;SDS011;7044;53.286;8.534;2023-06-10T06:21:50;8.25;;;3.55;;
13943;SDS011;7044;53.286;8.534;2023-06-10T06:24:17;7.10;;;3.30;;
13943;SDS011;7044;53.286;8.534;2023-06-10T06:26:44;5.13;;;3.53;;
13943;SDS011;7044;53.286;8.534;2023-06-10T06:29:12;8.02;;;3.97;;
13943;SDS011;7044;53.286;8.534;2023-06-10T06:31:39;7.10;;;3.25;;
13943;SDS011;7044;53.286;8.534;2023-06-10T06:34:06;8.95;;;3.47;;
13943;SDS011;7044;53.286;8.534;2023-06-10T06:36:33;4.97;;;3.30;;
13943;SDS011;7044;53.286;8.534;2023-06-10T06:38:59;6.72;;;3.15;;
13943;SDS011;7044;53.286;8.534;2023-06-10T06:41:26;10.70;;;4.13;;
13943;SDS011;7044;53.286;8.534;2023-06-10T06:43:53;8.73;;;4.07;;
13943;SDS011;7044;53.286;8.534;2023-06-10T06:46:22;7.60;;;4.07;;
13943;SDS011;7044;53.286;8.534;2023-06-10T06:48:49;10.25;;;4.10;;
13943;SDS011;7044;53.286;8.534;2023-06-10T06:51:16;13.60;;;4.57;;
13943;SDS011;7044;53.286;8.534;2023-06-10T06:53:43;9.02;;;3.92;;
13943;SDS011;7044;53.286;8.534;2023-06-10T06:56:10;9.00;;;3.65;;
13943;SDS011;7044;53.286;8.534;2023-06-10T06:58:37;8.75;;;4.70;;
13943;SDS011;7044;53.286;8.534;2023-06-10T07:01:04;8.77;;;4.25;;
13943;SDS011;7044;53.286;8.534;2023-06-10T07:03:32;12.20;;;4.80;;
13943;SDS011;7044;53.286;8.534;2023-06-10T07:05:59;19.95;;;4.40;;
13943;SDS011;7044;53.286;8.534;2023-06-10T07:08:26;9.45;;;4.50;;
13943;SDS011;7044;53.286;8.534;2023-06-10T07:10:53;10.95;;;4.90;;
13943;SDS011;7044;53.286;8.534;2023-06-10T07:13:20;9.80;;;4.43;;
13943;SDS011;7044;53.286;8.534;2023-06-10T07:15:47;9.43;;;4.00;;
13943;SDS011;7044;53.286;8.534;2023-06-10T07:18:14;8.65;;;4.15;;
13943;SDS011;7044;53.286;8.534;2023-06-10T07:20:43;6.75;;;3.85;;
13943;SDS011;7044;53.286;8.534;2023-06-10T07:23:10;9.23;;;4.45;;
13943;SDS011;7044;53.286;8.534;2023-06-10T07:25:37;12.98;;;3.92;;
13943;SDS011;7044;53.286;8.534;2023-06-10T07:28:04;7.65;;;4.43;;
13943;SDS011;7044;53.286;8.534;2023-06-10T07:30:31;7.47;;;3.13;;
13943;SDS011;7044;53.286;8.534;2023-06-10T07:32:58;7.18;;;3.95;;
13943;SDS011;7044;53.286;8.534;2023-06-10T07:35:25;8.55;;;3.47;;
13943;SDS011;7044;53.286;8.534;2023-06-10T07:37:54;6.40;;;3.33;;
13943;SDS011;7044;53.286;8.534;2023-06-10T07:40:20;8.07;;;3.83;;
13943;SDS011;7044;53.286;8.534;2023-06-10T07:42:47;8.70;;;3.90;;
13943;SDS011;7044;53.286;8.534;2023-06-10T07:45:14;10.65;;;4.50;;
13943;SDS011;7044;53.286;8.534;2023-06-10T07:47:42;10.18;;;4.07;;
13943;SDS011;7044;53.286;8.534;2023-06-10T07:50:10;10.63;;;4.00;;
13943;SDS011;7044;53.286;8.534;2023-06-10T07:52:36;9.52;;;3.53;;
13943;SDS011;7044;53.286;8.534;2023-06-10T07:55:05;6.07;;;3.53;;
13943;SDS011;7044;53.286;8.534;2023-06-10T07:57:33;9.30;;;3.63;;
13943;SDS011;7044;53.286;8.534;2023-06-10T08:00:01;11.18;;;3.38;;
13943;SDS011;7044;53.286;8.534;2023-06-10T08:02:29;6.65;;;3.42;;
13943;SDS011;7044;53.286;8.534;2023-06-10T08:04:56;9.70;;;3.25;;
13943;SDS011;7044;53.286;8.534;2023-06-10T08:07:23;7.15;;;3.40;;
13943;SDS011;7044;53.286;8.534;2023-06-10T08:09:50;7.90;;;3.60;;
13943;SDS011;7044;53.286;8.534;2023-06-10T08:12:18;6.90;;;3.45;;
13943;SDS011;7044;53.286;8.534;2023-06-10T08:14:46;10.23;;;3.47;;
13943;SDS011;7044;53.286;8.534;2023-06-10T08:17:13;5.20;;;3.15;;
13943;SDS011;7044;53.286;8.534;2023-06-10T08:19:40;8.93;;;3.08;;
13943;SDS011;7044;53.286;8.534;2023-06-10T08:22:06;7.55;;;3.13;;
13943;SDS011;7044;53.286;8.534;2023-06-10T08:24:33;12.45;;;3.05;;
13943;SDS011;7044;53.286;8.534;2023-06-10T08:27:00;11.40;;;3.55;;
13943;SDS011;7044;53.286;8.534;2023-06-10T08:29:28;10.90;;;3.42;;
13943;SDS011;7044;53.286;8.534;2023-06-10T08:31:56;8.40;;;3.20;;
13943;SDS011;7044;53.286;8.534;2023-06-10T08:34:24;6.85;;;2.92;;
13943;SDS011;7044;53.286;8.534;2023-06-10T08:36:51;10.95;;;3.38;;
13943;SDS011;7044;53.286;8.534;2023-06-10T08:39:20;7.38;;;3.63;;
13943;SDS011;7044;53.286;8.534;2023-06-10T08:41:49;7.15;;;3.15;;
13943;SDS011;7044;53.286;8.534;2023-06-10T08:44:26;7.47;;;2.90;;
13943;SDS011;7044;53.286;8.534;2023-06-10T08:46:58;7.82;;;3.47;;
13943;SDS011;7044;53.286;8.534;2023-06-10T08:49:26;8.02;;;3.50;;
13943;SDS011;7044;53.286;8.534;2023-06-10T08:51:58;11.25;;;3.03;;
13943;SDS011;7044;53.286;8.534;2023-06-10T08:54:27;5.22;;;2.78;;
13943;SDS011;7044;53.286;8.534;2023-06-10T08:56:58;7.45;;;3.20;;
13943;SDS011;7044;53.286;8.534;2023-06-10T08:59:29;7.07;;;3.28;;
13943;SDS011;7044;53.286;8.534;2023-06-10T09:01:56;6.53;;;2.90;;
13943;SDS011;7044;53.286;8.534;2023-06-10T09:04:24;9.25;;;3.22;;
13943;SDS011;7044;53.286;8.534;2023-06-10T09:06:52;9.82;;;3.17;;
13943;SDS011;7044;53.286;8.534;2023-06-10T09:09:20;5.65;;;3.05;;
13943;SDS011;7044;53.286;8.534;2023-06-10T09:11:48;7.45;;;3.38;;
13943;SDS011;7044;53.286;8.534;2023-06-10T09:14:15;6.80;;;3.05;;
13943;SDS011;7044;53.286;8.534;2023-06-10T09:16:44;5.75;;;2.97;;
13943;SDS011;7044;53.286;8.534;2023-06-10T09:19:13;3.30;;;2.13;;
13943;SDS011;7044;53.286;8.534;2023-06-10T09:21:42;3.15;;;2.50;;
13943;SDS011;7044;53.286;8.534;2023-06-10T09:24:09;6.20;;;3.22;;
13943;SDS011;7044;53.286;8.534;2023-06-10T09:26:36;8.57;;;3.47;;
13943;SDS011;7044;53.286;8.534;2023-06-10T09:29:03;9.32;;;3.20;;
13943;SDS011;7044;53.286;8.534;2023-06-10T09:31:31;7.68;;;2.80;;
13943;SDS011;7044;53.286;8.534;2023-06-10T09:34:08;6.03;;;2.78;;
13943;SDS011;7044;53.286;8.534;2023-06-10T09:36:36;6.68;;;2.83;;
13943;SDS011;7044;53.286;8.534;2023-06-10T09:39:06;8.48;;;2.95;;
13943;SDS011;7044;53.286;8.534;2023-06-10T09:41:40;10.43;;;2.65;;
13943;SDS011;7044;53.286;8.534;2023-06-10T09:44:09;6.93;;;2.72;;
13943;SDS011;7044;53.286;8.534;2023-06-10T09:46:39;7.00;;;2.65;;
13943;SDS011;7044;53.286;8.534;2023-06-10T09:49:08;5.90;;;2.70;;
13943;SDS011;7044;53.286;8.534;2023-06-10T09:51:35;7.50;;;2.72;;
13943;SDS011;7044;53.286;8.534;2023-06-10T09:54:02;4.22;;;2.28;;
13943;SDS011;7044;53.286;8.534;2023-06-10T09:56:32;6.80;;;3.00;;
13943;SDS011;7044;53.286;8.534;2023-06-10T09:59:00;5.72;;;3.20;;
13943;SDS011;7044;53.286;8.534;2023-06-10T10:01:28;5.72;;;2.53;;
13943;SDS011;7044;53.286;8.534;2023-06-10T10:03:58;7.45;;;2.45;;
13943;SDS011;7044;53.286;8.534;2023-06-10T10:06:26;4.88;;;2.72;;
13943;SDS011;7044;53.286;8.534;2023-06-10T10:08:54;4.57;;;2.92;;
13943;SDS011;7044;53.286;8.534;2023-06-10T10:11:21;6.70;;;2.85;;
13943;SDS011;7044;53.286;8.534;2023-06-10T10:13:51;14.77;;;2.83;;
13943;SDS011;7044;53.286;8.534;2023-06-10T10:16:19;3.10;;;2.25;;
13943;SDS011;7044;53.286;8.534;2023-06-10T10:18:49;8.45;;;2.50;;
13943;SDS011;7044;53.286;8.534;2023-06-10T10:21:21;4.00;;;2.55;;
13943;SDS011;7044;53.286;8.534;2023-06-10T10:23:57;5.00;;;2.42;;
13943;SDS011;7044;53.286;8.534;2023-06-10T10:26:27;5.80;;;2.55;;
13943;SDS011;7044;53.286;8.534;2023-06-10T10:28:58;9.88;;;2.80;;
13943;SDS011;7044;53.286;8.534;2023-06-10T10:31:34;15.25;;;3.60;;
13943;SDS011;7044;53.286;8.534;2023-06-10T10:34:04;8.13;;;3.25;;
13943;SDS011;7044;53.286;8.534;2023-06-10T10:36:33;4.80;;;2.97;;
13943;SDS011;7044;53.286;8.534;2023-06-10T10:39:02;4.82;;;2.60;;
13943;SDS011;7044;53.286;8.534;2023-06-10T10:41:31;5.53;;;2.58;;
13943;SDS011;7044;53.286;8.534;2023-06-10T10:44:00;9.52;;;2.42;;
13943;SDS011;7044;53.286;8.534;2023-06-10T10:46:30;4.97;;;2.20;;
13943;SDS011;7044;53.286;8.534;2023-06-10T10:49:07;12.13;;;2.97;;
13943;SDS011;7044;53.286;8.534;2023-06-10T10:51:35;7.18;;;2.70;;
13943;SDS011;7044;53.286;8.534;2023-06-10T10:54:13;5.15;;;2.38;;
13943;SDS011;7044;53.286;8.534;2023-06-10T10:56:45;6.72;;;2.50;;
13943;SDS011;7044;53.286;8.534;2023-06-10T10:59:42;6.65;;;2.75;;
13943;SDS011;7044;53.286;8.534;2023-06-10T11:02:10;7.63;;;2.70;;
13943;SDS011;7044;53.286;8.534;2023-06-10T11:04:44;4.18;;;2.40;;
13943;SDS011;7044;53.286;8.534;2023-06-10T11:07:12;5.65;;;3.10;;
13943;SDS011;7044;53.286;8.534;2023-06-10T11:09:45;8.68;;;2.42;;
13943;SDS011;7044;53.286;8.534;2023-06-10T11:12:24;5.50;;;2.65;;
13943;SDS011;7044;53.286;8.534;2023-06-10T11:14:53;3.65;;;2.25;;
13943;SDS011;7044;53.286;8.534;2023-06-10T11:17:21;4.90;;;2.60;;
13943;SDS011;7044;53.286;8.534;2023-06-10T11:19:48;5.97;;;2.17;;
13943;SDS011;7044;53.286;8.534;2023-06-10T11:22:16;4.18;;;2.05;;
13943;SDS011;7044;53.286;8.534;2023-06-10T11:24:48;8.43;;;2.45;;
13943;SDS011;7044;53.286;8.534;2023-06-10T11:27:16;2.80;;;2.05;;
13943;SDS011;7044;53.286;8.534;2023-06-10T11:32:45;6.63;;;2.78;;
13943;SDS011;7044;53.286;8.534;2023-06-10T11:35:18;5.57;;;2.10;;
13943;SDS011;7044;53.286;8.534;2023-06-10T11:37:46;5.25;;;2.15;;
13943;SDS011;7044;53.286;8.534;2023-06-10T11:40:15;4.15;;;2.45;;
13943;SDS011;7044;53.286;8.534;2023-06-10T11:42:42;5.70;;;1.98;;
13943;SDS011;7044;53.286;8.534;2023-06-10T11:45:09;3.17;;;2.08;;
13943;SDS011;7044;53.286;8.534;2023-06-10T11:47:42;6.38;;;2.20;;
13943;SDS011;7044;53.286;8.534;2023-06-10T11:50:27;4.65;;;2.13;;
13943;SDS011;7044;53.286;8.534;2023-06-10T11:52:55;4.97;;;2.42;;
13943;SDS011;7044;53.286;8.534;2023-06-10T11:55:24;4.05;;;2.20;;
13943;SDS011;7044;53.286;8.534;2023-06-10T11:57:51;4.25;;;1.83;;
13943;SDS011;7044;53.286;8.534;2023-06-10T12:00:22;3.22;;;1.80;;
13943;SDS011;7044;53.286;8.534;2023-06-10T12:02:54;7.53;;;2.30;;
13943;SDS011;7044;53.286;8.534;2023-06-10T12:05:23;6.38;;;2.42;;
13943;SDS011;7044;53.286;8.534;2023-06-10T12:07:50;5.38;;;2.30;;
13943;SDS011;7044;53.286;8.534;2023-06-10T12:10:40;3.67;;;1.90;;
13943;SDS011;7044;53.286;8.534;2023-06-10T12:13:08;5.18;;;2.03;;
13943;SDS011;7044;53.286;8.534;2023-06-10T12:15:35;4.15;;;2.22;;
13943;SDS011;7044;53.286;8.534;2023-06-10T12:18:02;2.80;;;2.10;;
13943;SDS011;7044;53.286;8.534;2023-06-10T12:20:30;4.55;;;2.05;;
13943;SDS011;7044;53.286;8.534;2023-06-10T12:22:58;2.60;;;2.03;;
13943;SDS011;7044;53.286;8.534;2023-06-10T12:25:26;5.82;;;2.20;;
13943;SDS011;7044;53.286;8.534;2023-06-10T12:27:55;2.53;;;2.03;;
13943;SDS011;7044;53.286;8.534;2023-06-10T12:30:24;5.10;;;2.00;;
13943;SDS011;7044;53.286;8.534;2023-06-10T12:32:52;5.10;;;1.88;;
13943;SDS011;7044;53.286;8.534;2023-06-10T12:35:20;2.92;;;2.15;;
13943;SDS011;7044;53.286;8.534;2023-06-10T12:37:56;4.10;;;2.42;;
13943;SDS011;7044;53.286;8.534;2023-06-10T12:40:25;11.90;;;2.47;;
13943;SDS011;7044;53.286;8.534;2023-06-10T12:42:55;3.10;;;1.90;;
13943;SDS011;7044;53.286;8.534;2023-06-10T12:45:28;6.30;;;1.80;;
13943;SDS011;7044;53.286;8.534;2023-06-10T12:48:05;4.03;;;1.92;;
13943;SDS011;7044;53.286;8.534;2023-06-10T12:50:34;4.90;;;2.15;;
13943;SDS011;7044;53.286;8.534;2023-06-10T12:53:02;5.93;;;2.20;;
13943;SDS011;7044;53.286;8.534;2023-06-10T12:55:29;4.55;;;2.00;;
13943;SDS011;7044;53.286;8.534;2023-06-10T12:57:57;4.25;;;1.85;;
13943;SDS011;7044;53.286;8.534;2023-06-10T13:00:25;4.35;;;1.80;;
13943;SDS011;7044;53.286;8.534;2023-06-10T13:02:54;1.88;;;1.63;;
13943;SDS011;7044;53.286;8.534;2023-06-10T13:05:21;3.58;;;2.13;;
13943;SDS011;7044;53.286;8.534;2023-06-10T13:07:48;3.63;;;2.00;;
13943;SDS011;7044;53.286;8.534;2023-06-10T13:10:16;6.55;;;2.10;;
13943;SDS011;7044;53.286;8.534;2023-06-10T13:12:43;6.30;;;2.22;;
13943;SDS011;7044;53.286;8.534;2023-06-10T13:15:13;3.35;;;1.63;;
13943;SDS011;7044;53.286;8.534;2023-06-10T13:17:40;5.85;;;2.20;;
13943;SDS011;7044;53.286;8.534;2023-06-10T13:20:08;6.63;;;2.00;;
13943;SDS011;7044;53.286;8.534;2023-06-10T13:22:35;5.32;;;2.00;;
13943;SDS011;7044;53.286;8.534;2023-06-10T13:25:02;4.00;;;1.77;;
13943;SDS011;7044;53.286;8.534;2023-06-10T13:27:30;2.33;;;1.88;;
13943;SDS011;7044;53.286;8.534;2023-06-10T13:29:57;5.63;;;2.38;;
13943;SDS011;7044;53.286;8.534;2023-06-10T13:32:25;6.72;;;2.60;;
13943;SDS011;7044;53.286;8.534;2023-06-10T13:34:52;3.97;;;2.05;;
13943;SDS011;7044;53.286;8.534;2023-06-10T13:37:19;13.95;;;2.25;;
13943;SDS011;7044;53.286;8.534;2023-06-10T13:39:46;3.95;;;2.38;;
13943;SDS011;7044;53.286;8.534;2023-06-10T13:42:15;4.95;;;2.10;;
13943;SDS011;7044;53.286;8.534;2023-06-10T13:44:42;4.03;;;1.90;;
13943;SDS011;7044;53.286;8.534;2023-06-10T13:47:09;3.78;;;1.98;;
13943;SDS011;7044;53.286;8.534;2023-06-10T13:49:37;3.13;;;1.85;;
13943;SDS011;7044;53.286;8.534;2023-06-10T13:52:04;6.05;;;2.00;;
13943;SDS011;7044;53.286;8.534;2023-06-10T13:54:31;3.10;;;1.85;;
13943;SDS011;7044;53.286;8.534;2023-06-10T13:56:58;4.90;;;2.20;;
13943;SDS011;7044;53.286;8.534;2023-06-10T13:59:25;3.17;;;2.38;;
13943;SDS011;7044;53.286;8.534;2023-06-10T14:01:52;3.75;;;2.20;;
13943;SDS011;7044;53.286;8.534;2023-06-10T14:04:19;4.68;;;2.50;;
13943;SDS011;7044;53.286;8.534;2023-06-10T14:06:47;4.57;;;2.38;;
13943;SDS011;7044;53.286;8.534;2023-06-10T14:09:14;3.33;;;2.15;;
13943;SDS011;7044;53.286;8.534;2023-06-10T14:11:41;3.35;;;2.30;;
13943;SDS011;7044;53.286;8.534;2023-06-10T14:14:08;3.60;;;2.00;;
13943;SDS011;7044;53.286;8.534;2023-06-10T14:16:35;5.57;;;2.50;;
13943;SDS011;7044;53.286;8.534;2023-06-10T14:19:02;4.18;;;2.65;;
13943;SDS011;7044;53.286;8.534;2023-06-10T14:21:29;4.68;;;2.70;;
13943;SDS011;7044;53.286;8.534;2023-06-10T14:23:57;3.13;;;2.17;;
13943;SDS011;7044;53.286;8.534;2023-06-10T14:26:23;4.15;;;2.17;;
13943;SDS011;7044;53.286;8.534;2023-06-10T14:28:51;3.25;;;2.22;;
13943;SDS011;7044;53.286;8.534;2023-06-10T14:31:18;4.70;;;2.58;;
13943;SDS011;7044;53.286;8.534;2023-06-10T14:33:44;4.25;;;2.22;;
13943;SDS011;7044;53.286;8.534;2023-06-10T14:36:11;3.60;;;2.47;;
13943;SDS011;7044;53.286;8.534;2023-06-10T14:38:38;7.75;;;2.70;;
13943;SDS011;7044;53.286;8.534;2023-06-10T14:41:06;3.33;;;2.28;;
13943;SDS011;7044;53.286;8.534;2023-06-10T14:43:33;6.40;;;2.60;;
13943;SDS011;7044;53.286;8.534;2023-06-10T14:46:00;2.83;;;2.50;;
13943;SDS011;7044;53.286;8.534;2023-06-10T14:48:27;7.97;;;3.03;;
13943;SDS011;7044;53.286;8.534;2023-06-10T14:50:53;7.97;;;2.72;;
13943;SDS011;7044;53.286;8.534;2023-06-10T14:53:20;6.90;;;2.85;;
13943;SDS011;7044;53.286;8.534;2023-06-10T14:55:47;4.90;;;2.90;;
13943;SDS011;7044;53.286;8.534;2023-06-10T14:58:15;3.05;;;2.35;;
13943;SDS011;7044;53.286;8.534;2023-06-10T15:00:42;5.50;;;2.85;;
13943;SDS011;7044;53.286;8.534;2023-06-10T15:03:09;4.13;;;2.85;;
13943;SDS011;7044;53.286;8.534;2023-06-10T15:05:36;7.00;;;2.75;;
13943;SDS011;7044;53.286;8.534;2023-06-10T15:08:03;5.47;;;2.83;;